createdAt,value
2019-01-29T00:01:33.707Z,91.37
2019-01-29T00:04:00.459Z,91.23
2019-01-29T00:06:27.204Z,91.61
2019-01-29T00:08:53.976Z,91.49
2019-01-29T00:11:20.745Z,91.67
2019-01-29T00:13:47.512Z,91.92
2019-01-29T00:16:14.257Z,91.33
2019-01-29T00:18:41.020Z,92.51
2019-01-29T00:21:07.753Z,92.17
2019-01-29T00:23:34.627Z,91.64
2019-01-29T00:26:01.372Z,92.02
2019-01-29T00:28:28.132Z,92.24
2019-01-29T00:30:54.872Z,91.98
2019-01-29T00:33:21.636Z,92.55
2019-01-29T00:35:48.372Z,92.28
2019-01-29T00:38:15.140Z,92.50
2019-01-29T00:40:41.904Z,92.28
2019-01-29T00:43:08.754Z,92.70
2019-01-29T00:45:35.548Z,92.21
2019-01-29T00:48:02.311Z,92.15
2019-01-29T00:50:29.068Z,92.18
2019-01-29T00:52:55.821Z,91.40
2019-01-29T00:55:22.564Z,91.45
2019-01-29T00:57:49.324Z,91.58
2019-01-29T01:00:20.190Z,91.61
2019-01-29T01:02:47.007Z,91.37
2019-01-29T01:05:13.919Z,91.34
2019-01-29T01:07:40.672Z,91.27
2019-01-29T01:10:09.185Z,91.39
2019-01-29T01:12:36.021Z,91.62
2019-01-29T01:15:02.816Z,90.75
2019-01-29T01:17:29.588Z,91.00
2019-01-29T01:19:56.336Z,91.20
2019-01-29T01:22:23.092Z,91.43
2019-01-29T01:24:49.848Z,91.62
2019-01-29T01:27:16.580Z,91.89
2019-01-29T01:29:43.346Z,91.90
2019-01-29T01:32:10.096Z,92.16
2019-01-29T01:34:36.860Z,92.30
2019-01-29T01:37:03.604Z,92.74
2019-01-29T01:39:30.352Z,92.02
2019-01-29T01:41:57.096Z,92.15
2019-01-29T01:44:23.880Z,92.64
2019-01-29T01:46:50.624Z,92.58
2019-01-29T01:49:17.384Z,92.99
2019-01-29T01:51:44.132Z,93.76
2019-01-29T01:54:10.896Z,93.14
2019-01-29T01:56:37.629Z,93.09
2019-01-29T01:59:04.385Z,93.00
2019-01-29T02:01:31.156Z,93.14
2019-01-29T02:03:57.956Z,93.36
2019-01-29T02:06:24.704Z,93.08
2019-01-29T02:08:51.471Z,93.14
2019-01-29T02:11:18.199Z,92.87
2019-01-29T02:13:44.972Z,92.97
2019-01-29T02:16:11.704Z,92.76
2019-01-29T02:18:38.571Z,92.37
2019-01-29T02:21:05.301Z,93.08
2019-01-29T02:23:32.055Z,92.88
2019-01-29T02:25:58.800Z,92.48
2019-01-29T02:28:25.559Z,92.12
2019-01-29T02:30:52.288Z,92.10
2019-01-29T02:33:19.058Z,92.04
2019-01-29T02:35:45.796Z,91.74
2019-01-29T02:38:12.588Z,92.11
2019-01-29T02:40:39.337Z,91.59
2019-01-29T02:43:06.087Z,91.83
2019-01-29T02:45:32.838Z,91.49
2019-01-29T02:47:59.592Z,90.72
2019-01-29T02:50:26.331Z,90.75
2019-01-29T02:52:53.075Z,90.89
2019-01-29T02:55:19.853Z,89.18
2019-01-29T02:57:46.594Z,88.34
2019-01-29T03:00:17.300Z,86.33
2019-01-29T03:02:44.053Z,87.75
2019-01-29T03:05:10.842Z,87.93
2019-01-29T03:07:37.592Z,88.88
2019-01-29T03:10:06.015Z,86.94
2019-01-29T03:12:32.756Z,87.28
2019-01-29T03:14:59.513Z,88.32
2019-01-29T03:17:26.280Z,90.19
2019-01-29T03:19:53.046Z,90.44
2019-01-29T03:22:19.781Z,90.25
2019-01-29T03:24:46.540Z,91.98
2019-01-29T03:27:13.281Z,91.26
2019-01-29T03:29:40.049Z,93.15
2019-01-29T03:32:06.794Z,92.45
2019-01-29T03:34:33.653Z,93.20
2019-01-29T03:37:00.392Z,93.74
2019-01-29T03:39:27.156Z,93.57
2019-01-29T03:41:53.891Z,92.70
2019-01-29T03:44:20.653Z,94.05
2019-01-29T03:46:47.386Z,94.19
2019-01-29T03:49:14.196Z,94.89
2019-01-29T03:51:40.933Z,95.95
2019-01-29T03:54:07.697Z,96.09
2019-01-29T03:56:34.424Z,95.96
2019-01-29T03:59:01.172Z,96.60
2019-01-29T04:01:27.936Z,96.59
2019-01-29T04:03:54.663Z,95.87
2019-01-29T04:06:21.412Z,95.77
2019-01-29T04:08:48.199Z,95.95
2019-01-29T04:11:14.954Z,95.95
2019-01-29T04:13:41.685Z,95.38
2019-01-29T04:16:08.459Z,96.03
2019-01-29T04:18:35.203Z,95.57
2019-01-29T04:21:01.975Z,95.78
2019-01-29T04:23:28.712Z,95.51
2019-01-29T04:25:55.460Z,95.73
2019-01-29T04:28:22.195Z,96.19
2019-01-29T04:30:48.952Z,96.53
2019-01-29T04:33:15.684Z,95.73
2019-01-29T04:35:42.436Z,95.73
2019-01-29T04:38:09.193Z,96.02
2019-01-29T04:40:35.941Z,95.18
2019-01-29T04:43:02.678Z,95.09
2019-01-29T04:45:29.445Z,95.43
2019-01-29T04:47:56.172Z,94.89
2019-01-29T04:52:23.204Z,95.42
2019-01-29T04:54:49.974Z,95.11
2019-01-29T04:57:16.737Z,94.80
2019-01-29T04:59:43.492Z,94.64
2019-01-29T05:02:10.252Z,95.38
2019-01-29T05:04:37.011Z,95.87
2019-01-29T05:07:03.765Z,95.40
2019-01-29T05:09:30.585Z,95.40
2019-01-29T05:11:57.272Z,95.65
2019-01-29T05:14:24.011Z,95.07
2019-01-29T05:16:50.773Z,95.44
2019-01-29T05:19:17.577Z,95.54
2019-01-29T05:21:44.470Z,95.35
2019-01-29T05:24:11.216Z,95.23
2019-01-29T05:26:37.977Z,94.36
2019-01-29T05:29:04.719Z,94.26
2019-01-29T05:31:31.496Z,93.81
2019-01-29T05:33:58.224Z,93.33
2019-01-29T05:36:25.124Z,93.25
2019-01-29T05:38:51.876Z,93.29
2019-01-29T05:41:18.639Z,92.71
2019-01-29T05:43:45.378Z,93.05
2019-01-29T05:46:12.223Z,92.39
2019-01-29T05:48:38.964Z,92.69
2019-01-29T05:51:05.736Z,93.36
2019-01-29T05:53:32.496Z,92.84
2019-01-29T05:55:59.325Z,93.12
2019-01-29T05:58:26.158Z,93.13
2019-01-29T06:00:52.945Z,92.77
2019-01-29T06:03:19.816Z,93.51
2019-01-29T06:05:46.597Z,93.11
2019-01-29T06:08:13.749Z,92.70
2019-01-29T06:10:40.580Z,92.59
2019-01-29T06:13:07.363Z,93.36
2019-01-29T06:15:34.144Z,92.84
2019-01-29T06:18:00.967Z,92.37
2019-01-29T06:20:27.919Z,92.35
2019-01-29T06:22:55.860Z,92.71
2019-01-29T06:25:22.658Z,92.45
2019-01-29T06:27:49.494Z,93.03
2019-01-29T06:30:17.301Z,93.40
2019-01-29T06:32:44.108Z,93.42
2019-01-29T06:35:12.233Z,92.90
2019-01-29T06:37:39.746Z,93.05
2019-01-29T06:40:08.048Z,93.56
2019-01-29T06:42:34.814Z,93.52
2019-01-29T06:45:01.595Z,94.08
2019-01-29T06:47:29.395Z,93.44
2019-01-29T06:49:56.170Z,94.01
2019-01-29T06:52:22.987Z,94.35
2019-01-29T06:54:49.740Z,94.51
2019-01-29T06:57:16.601Z,95.36
2019-01-29T06:59:43.374Z,94.36
2019-01-29T07:02:10.776Z,94.05
2019-01-29T07:04:37.589Z,94.77
2019-01-29T07:07:04.376Z,93.54
2019-01-29T07:09:31.361Z,94.67
2019-01-29T07:12:00.393Z,94.18
2019-01-29T07:14:27.200Z,93.84
2019-01-29T07:17:01.588Z,95.63
2019-01-29T07:19:33.892Z,95.64
2019-01-29T07:22:00.687Z,95.93
2019-01-29T07:24:27.504Z,95.25
2019-01-29T07:26:54.301Z,95.34
2019-01-29T07:29:21.067Z,94.00
2019-01-29T07:31:48.112Z,94.46
2019-01-29T07:34:14.939Z,95.02
2019-01-29T07:36:41.749Z,95.24
2019-01-29T07:39:09.676Z,95.11
2019-01-29T07:41:36.461Z,95.44
2019-01-29T07:44:03.270Z,94.41
2019-01-29T07:46:30.090Z,94.59
2019-01-29T07:48:56.848Z,95.57
2019-01-29T07:51:23.663Z,94.65
2019-01-29T07:53:50.448Z,94.90
2019-01-29T07:56:17.480Z,95.22
2019-01-29T07:58:44.280Z,95.83
2019-01-29T08:01:11.035Z,95.90
2019-01-29T08:03:38.235Z,95.95
2019-01-29T08:06:04.773Z,95.79
2019-01-29T08:08:31.570Z,96.56
2019-01-29T08:10:58.316Z,96.14
2019-01-29T08:13:25.098Z,95.37
2019-01-29T08:15:51.980Z,94.37
2019-01-29T08:18:20.527Z,95.04
2019-01-29T08:20:45.811Z,93.99
2019-01-29T08:23:12.618Z,94.25
2019-01-29T08:25:47.405Z,94.12
2019-01-29T08:28:06.908Z,94.46
2019-01-29T08:30:33.739Z,93.32
2019-01-29T08:33:00.671Z,93.10
2019-01-29T08:35:27.468Z,91.36
2019-01-29T08:37:54.307Z,90.12
2019-01-29T08:40:21.081Z,91.06
2019-01-29T08:42:47.904Z,90.40
2019-01-29T08:45:14.821Z,90.71
2019-01-29T08:47:41.516Z,91.12
2019-01-29T08:50:11.060Z,90.88
2019-01-29T08:52:37.934Z,92.35
2019-01-29T08:55:10.637Z,91.78
2019-01-29T08:57:31.870Z,89.95
2019-01-29T08:59:58.886Z,90.19
2019-01-29T09:02:25.670Z,89.96
2019-01-29T09:04:52.417Z,89.74
2019-01-29T09:07:19.201Z,89.75
2019-01-29T09:09:46.010Z,89.96
2019-01-29T09:12:12.749Z,88.79
2019-01-29T09:14:39.513Z,90.54
2019-01-29T09:17:06.264Z,89.34
2019-01-29T09:19:33.018Z,89.92
2019-01-29T09:21:59.755Z,90.66
2019-01-29T09:24:26.513Z,91.22
2019-01-29T09:26:53.256Z,91.33
2019-01-29T09:29:20.016Z,92.44
2019-01-29T09:31:46.787Z,92.49
2019-01-29T09:34:13.544Z,91.69
2019-01-29T09:36:40.302Z,92.11
2019-01-29T09:39:09.252Z,91.01
2019-01-29T09:41:36.000Z,92.61
2019-01-29T09:44:02.795Z,91.59
2019-01-29T09:46:29.524Z,92.02
2019-01-29T09:48:56.271Z,92.22
2019-01-29T09:51:23.018Z,92.09
2019-01-29T09:53:49.856Z,91.99
2019-01-29T09:56:16.658Z,91.06
2019-01-29T09:58:43.430Z,90.98
2019-01-29T10:01:10.185Z,88.78
2019-01-29T10:03:36.989Z,88.83
2019-01-29T10:06:03.720Z,88.23
2019-01-29T10:08:30.477Z,87.45
2019-01-29T10:10:57.293Z,87.09
2019-01-29T10:13:23.998Z,85.41
2019-01-29T10:15:50.740Z,85.95
2019-01-29T10:18:17.521Z,86.34
2019-01-29T10:20:44.273Z,87.17
2019-01-29T10:23:11.057Z,87.52
2019-01-29T10:25:38.241Z,87.51
2019-01-29T10:28:04.531Z,86.75
2019-01-29T10:30:31.301Z,86.64
2019-01-29T10:32:58.053Z,86.01
2019-01-29T10:35:25.116Z,85.96
2019-01-29T10:37:51.852Z,86.43
2019-01-29T10:40:19.932Z,87.57
2019-01-29T10:42:46.669Z,88.80
2019-01-29T10:45:14.940Z,88.92
2019-01-29T10:47:41.691Z,88.22
2019-01-29T10:50:10.224Z,88.41
2019-01-29T10:52:36.998Z,87.61
2019-01-29T10:55:04.753Z,88.08
2019-01-29T10:57:31.490Z,87.27
2019-01-29T10:59:58.269Z,87.54
2019-01-29T11:02:25.012Z,87.36
2019-01-29T11:04:51.771Z,87.18
2019-01-29T11:07:18.513Z,86.54
2019-01-29T11:09:45.255Z,85.17
2019-01-29T11:12:11.994Z,86.01
2019-01-29T11:14:38.744Z,84.78
2019-01-29T11:17:05.492Z,83.52
2019-01-29T11:19:32.268Z,83.69
2019-01-29T11:21:59.007Z,83.56
2019-01-29T11:24:25.772Z,82.73
2019-01-29T11:26:52.504Z,82.74
2019-01-29T11:29:19.278Z,82.61
2019-01-29T11:31:46.016Z,81.83
2019-01-29T11:34:12.796Z,80.50
2019-01-29T11:36:39.693Z,80.87
2019-01-29T11:39:08.516Z,80.13
2019-01-29T11:41:35.268Z,79.59
2019-01-29T11:44:02.049Z,80.32
2019-01-29T11:46:28.803Z,82.58
2019-01-29T11:48:55.568Z,79.80
2019-01-29T11:51:22.309Z,80.11
2019-01-29T11:53:49.068Z,79.48
2019-01-29T11:56:15.828Z,78.36
2019-01-29T11:58:42.667Z,79.07
2019-01-29T12:01:10.702Z,78.71
2019-01-29T12:03:37.444Z,79.93
2019-01-29T12:06:04.216Z,78.34
2019-01-29T12:08:30.953Z,79.18
2019-01-29T12:10:57.712Z,78.74
2019-01-29T12:13:24.456Z,78.05
2019-01-29T12:15:51.212Z,76.61
2019-01-29T12:18:17.949Z,73.62
2019-01-29T12:20:44.703Z,72.70
2019-01-29T12:23:11.463Z,72.50
2019-01-29T12:25:38.232Z,71.29
2019-01-29T12:28:05.080Z,70.53
2019-01-29T12:30:31.836Z,70.83
2019-01-29T12:32:59.140Z,70.96
2019-01-29T12:35:25.909Z,70.15
2019-01-29T12:37:52.660Z,72.53
2019-01-29T12:40:19.416Z,70.26
2019-01-29T12:42:46.151Z,72.56
2019-01-29T12:45:13.080Z,74.13
2019-01-29T12:47:39.979Z,72.54
2019-01-29T12:50:09.509Z,73.45
2019-01-29T12:52:47.608Z,72.55
2019-01-29T12:55:14.367Z,72.51
2019-01-29T12:57:41.120Z,70.81
2019-01-29T13:00:09.796Z,70.49
2019-01-29T13:02:36.550Z,70.16
2019-01-29T13:05:04.492Z,70.00
2019-01-29T13:07:31.244Z,66.24
2019-01-29T13:09:58.911Z,65.28
2019-01-29T13:12:25.072Z,64.83
2019-01-29T13:14:51.832Z,66.70
2019-01-29T13:17:18.588Z,67.92
2019-01-29T13:19:45.351Z,67.71
2019-01-29T13:22:12.200Z,68.82
2019-01-29T13:24:39.136Z,66.85
2019-01-29T13:27:05.996Z,68.98
2019-01-29T13:29:32.772Z,68.27
2019-01-29T13:31:59.549Z,67.63
2019-01-29T13:34:26.279Z,67.34
2019-01-29T13:36:53.069Z,67.18
2019-01-29T13:39:19.897Z,68.70
2019-01-29T13:41:46.668Z,68.54
2019-01-29T13:44:13.434Z,67.28
2019-01-29T13:46:40.341Z,67.04
2019-01-29T13:49:07.190Z,67.87
2019-01-29T13:51:34.128Z,68.70
2019-01-29T13:54:00.986Z,70.16
2019-01-29T13:56:27.849Z,70.61
2019-01-29T13:58:54.698Z,70.56
2019-01-29T14:01:21.566Z,70.22
2019-01-29T14:03:48.441Z,69.39
2019-01-29T14:06:15.302Z,70.36
2019-01-29T14:08:42.144Z,69.56
2019-01-29T14:11:09.030Z,69.12
2019-01-29T14:13:35.873Z,69.34
2019-01-29T14:16:05.921Z,68.79
2019-01-29T14:18:32.775Z,67.10
2019-01-29T14:21:00.234Z,66.87
2019-01-29T14:23:27.114Z,66.05
2019-01-29T14:25:53.994Z,66.66
2019-01-29T14:28:20.846Z,66.39
2019-01-29T14:30:47.715Z,66.37
2019-01-29T14:33:14.554Z,66.01
2019-01-29T14:35:41.423Z,66.81
2019-01-29T14:38:44.278Z,66.01
2019-01-29T14:41:11.230Z,66.50
2019-01-29T14:43:38.217Z,66.15
2019-01-29T14:46:05.094Z,66.18
2019-01-29T14:48:31.971Z,65.50
2019-01-29T14:50:58.838Z,66.91
2019-01-29T14:53:25.722Z,66.37
2019-01-29T14:55:52.566Z,65.39
2019-01-29T14:58:19.413Z,67.00
2019-01-29T15:00:46.297Z,67.62
2019-01-29T15:03:13.137Z,67.51
2019-01-29T15:05:40.082Z,67.49
2019-01-29T15:08:06.939Z,66.50
2019-01-29T15:10:33.799Z,67.27
2019-01-29T15:13:00.659Z,66.59
2019-01-29T15:15:27.546Z,67.67
2019-01-29T15:17:57.854Z,68.25
2019-01-29T15:20:24.691Z,67.36
2019-01-29T15:22:51.558Z,68.16
2019-01-29T15:25:18.402Z,68.45
2019-01-29T15:27:45.277Z,68.83
2019-01-29T15:30:15.767Z,68.46
2019-01-29T15:32:42.629Z,68.67
2019-01-29T15:35:09.503Z,67.89
2019-01-29T15:37:36.370Z,68.45
2019-01-29T15:40:04.066Z,67.58
2019-01-29T15:42:30.974Z,68.18
2019-01-29T15:44:59.010Z,68.44
2019-01-29T15:47:24.703Z,68.37
2019-01-29T15:49:51.541Z,68.22
2019-01-29T15:52:18.401Z,66.72
2019-01-29T15:54:45.238Z,68.13
2019-01-29T15:57:14.238Z,68.21
2019-01-29T15:59:42.904Z,67.86
2019-01-29T16:02:05.838Z,68.75
2019-01-29T16:04:32.678Z,69.03
2019-01-29T16:06:59.537Z,68.66
2019-01-29T16:09:26.413Z,68.92
2019-01-29T16:11:53.258Z,68.07
2019-01-29T16:14:20.102Z,69.17
2019-01-29T16:16:46.982Z,70.15
2019-01-29T16:19:13.825Z,70.26
2019-01-29T16:21:40.691Z,71.05
2019-01-29T16:24:07.531Z,71.09
2019-01-29T16:26:34.469Z,69.10
2019-01-29T16:29:01.307Z,70.75
2019-01-29T16:31:28.150Z,70.82
2019-01-29T16:33:55.015Z,71.55
2019-01-29T16:36:21.894Z,72.30
2019-01-29T16:38:48.798Z,70.82
2019-01-29T16:41:15.677Z,72.55
2019-01-29T16:43:42.522Z,71.71
2019-01-29T16:46:09.362Z,73.37
2019-01-29T16:48:36.226Z,74.52
2019-01-29T16:51:03.067Z,74.65
2019-01-29T16:53:29.940Z,75.15
2019-01-29T16:55:56.782Z,75.26
2019-01-29T16:58:23.758Z,76.65
2019-01-29T17:00:50.722Z,74.39
2019-01-29T17:03:17.594Z,75.75
2019-01-29T17:05:44.430Z,76.30
2019-01-29T17:08:12.016Z,76.59
2019-01-29T17:10:38.318Z,76.21
2019-01-29T17:13:05.246Z,75.97
2019-01-29T17:15:32.119Z,76.32
2019-01-29T17:17:59.046Z,75.96
2019-01-29T17:20:29.910Z,76.54
2019-01-29T17:22:56.865Z,76.50
2019-01-29T17:25:23.706Z,76.44
2019-01-29T17:27:50.746Z,76.71
2019-01-29T17:30:21.898Z,74.68
2019-01-29T17:32:48.835Z,75.84
2019-01-29T17:35:15.764Z,74.38
2019-01-29T17:37:42.625Z,74.22
2019-01-29T17:40:10.287Z,75.40
2019-01-29T17:42:37.318Z,75.86
2019-01-29T17:45:05.410Z,76.81
2019-01-29T17:47:32.271Z,76.91
2019-01-29T17:49:59.115Z,77.40
2019-01-29T17:52:26.063Z,77.44
2019-01-29T17:54:52.907Z,76.04
2019-01-29T17:57:19.750Z,76.76
2019-01-29T17:59:46.609Z,75.99
2019-01-29T18:02:13.461Z,78.56
2019-01-29T18:04:40.318Z,78.30
2019-01-29T18:07:07.266Z,78.35
2019-01-29T18:09:34.150Z,79.02
2019-01-29T18:12:00.995Z,79.72
2019-01-29T18:14:27.907Z,77.46
2019-01-29T18:16:54.751Z,76.73
2019-01-29T18:19:21.606Z,78.89
2019-01-29T18:21:56.585Z,76.61
2019-01-29T18:24:15.306Z,78.39
2019-01-29T18:26:42.146Z,77.55
2019-01-29T18:29:09.002Z,78.48
2019-01-29T18:31:35.841Z,78.31
2019-01-29T18:34:02.699Z,78.13
2019-01-29T18:36:29.586Z,79.57
2019-01-29T18:38:56.454Z,78.62
2019-01-29T18:41:23.303Z,77.28
2019-01-29T18:43:50.198Z,78.89
2019-01-29T18:46:17.043Z,78.90
2019-01-29T18:48:43.894Z,80.30
2019-01-29T18:51:10.761Z,79.59
2019-01-29T18:53:37.616Z,80.58
2019-01-29T18:56:04.470Z,81.19
2019-01-29T18:58:31.325Z,80.35
2019-01-29T19:00:58.172Z,81.76
2019-01-29T19:03:25.002Z,80.19
2019-01-29T19:05:51.833Z,81.01
2019-01-29T19:08:18.693Z,81.32
2019-01-29T19:10:45.542Z,80.75
2019-01-29T19:13:12.398Z,81.87
2019-01-29T19:15:39.294Z,82.22
2019-01-29T19:18:06.230Z,83.07
2019-01-29T19:20:33.156Z,84.17
2019-01-29T19:22:59.991Z,84.50
2019-01-29T19:25:26.858Z,85.01
2019-01-29T19:27:53.727Z,87.13
2019-01-29T19:30:22.814Z,85.17
2019-01-29T19:32:49.776Z,84.89
2019-01-29T19:35:16.665Z,84.92
2019-01-29T19:37:43.672Z,84.23
2019-01-29T19:40:10.923Z,85.69
2019-01-29T19:42:37.786Z,84.18
2019-01-29T19:45:08.234Z,84.34
2019-01-29T19:47:35.332Z,84.23
2019-01-29T19:50:02.591Z,84.45
2019-01-29T19:52:29.491Z,83.13
2019-01-29T19:54:56.338Z,84.14
2019-01-29T19:57:24.885Z,83.52
2019-01-29T19:59:50.190Z,81.76
2019-01-29T20:02:17.322Z,83.00
2019-01-29T20:04:44.207Z,83.16
2019-01-29T20:07:11.138Z,81.47
2019-01-29T20:09:38.011Z,82.95
2019-01-29T20:12:04.853Z,82.38
2019-01-29T20:14:31.769Z,82.84
2019-01-29T20:16:58.598Z,81.32
2019-01-29T20:19:26.102Z,83.03
2019-01-29T20:21:52.934Z,81.34
2019-01-29T20:24:19.807Z,81.92
2019-01-29T20:26:46.750Z,81.46
2019-01-29T20:29:13.725Z,80.74
2019-01-29T20:31:40.542Z,81.72
2019-01-29T20:34:07.385Z,81.87
2019-01-29T20:36:34.326Z,81.14
2019-01-29T20:39:01.172Z,80.87
2019-01-29T20:41:28.038Z,82.34
2019-01-29T20:43:54.889Z,81.71
2019-01-29T20:46:21.755Z,81.80
2019-01-29T20:48:48.731Z,80.57
2019-01-29T20:51:15.648Z,81.92
2019-01-29T20:53:42.819Z,81.53
2019-01-29T20:56:11.049Z,81.93
2019-01-29T20:58:37.862Z,81.73
2019-01-29T21:01:04.833Z,81.10
2019-01-29T21:03:31.671Z,82.61
2019-01-29T21:05:58.581Z,82.12
2019-01-29T21:08:25.470Z,81.11
2019-01-29T21:10:52.335Z,82.56
2019-01-29T21:13:19.158Z,81.88
2019-01-29T21:15:46.022Z,81.90
2019-01-29T21:18:12.883Z,82.21
2019-01-29T21:20:39.828Z,81.66
2019-01-29T21:23:06.769Z,81.14
2019-01-29T21:25:33.698Z,81.79
2019-01-29T21:28:00.562Z,81.45
2019-01-29T21:30:34.094Z,80.98
2019-01-29T21:33:00.922Z,82.03
2019-01-29T21:35:27.842Z,80.86
2019-01-29T21:37:54.814Z,80.79
2019-01-29T21:40:21.698Z,81.95
2019-01-29T21:42:48.573Z,80.60
2019-01-29T21:45:15.503Z,81.21
2019-01-29T21:47:42.374Z,80.97
2019-01-29T21:50:13.622Z,80.28
2019-01-29T21:52:40.462Z,79.43
2019-01-29T21:55:07.925Z,80.60
2019-01-29T21:57:34.726Z,80.39
2019-01-29T22:00:01.611Z,80.20
2019-01-29T22:02:28.478Z,82.01
2019-01-29T22:04:55.305Z,80.91
2019-01-29T22:07:22.197Z,81.08
2019-01-29T22:09:49.082Z,80.40
2019-01-29T22:12:15.938Z,81.54
2019-01-29T22:14:42.778Z,79.94
2019-01-29T22:17:09.621Z,79.39
2019-01-29T22:19:36.463Z,80.26
2019-01-29T22:22:03.312Z,79.33
2019-01-29T22:24:30.147Z,79.66
2019-01-29T22:26:56.993Z,79.50
2019-01-29T22:29:23.826Z,80.73
2019-01-29T22:31:50.687Z,78.79
2019-01-29T22:34:17.502Z,78.66
2019-01-29T22:36:44.342Z,79.69
2019-01-29T22:39:11.171Z,79.11
2019-01-29T22:41:38.022Z,78.70
2019-01-29T22:44:04.888Z,79.31
2019-01-29T22:46:31.729Z,78.72
2019-01-29T22:48:58.560Z,79.83
2019-01-29T22:51:25.398Z,79.10
2019-01-29T22:53:52.229Z,78.34
2019-01-29T22:56:19.085Z,78.45
2019-01-29T22:58:45.917Z,79.49
2019-01-29T23:01:33.793Z,79.15
2019-01-29T23:04:09.806Z,79.22
2019-01-29T23:06:46.096Z,80.07
2019-01-29T23:09:12.956Z,80.07
2019-01-29T23:11:39.830Z,79.31
2019-01-29T23:14:06.757Z,80.20
2019-01-29T23:16:33.630Z,79.81
2019-01-29T23:19:00.460Z,79.47
2019-01-29T23:21:27.319Z,80.62
2019-01-29T23:23:54.162Z,79.39
2019-01-29T23:26:21.038Z,80.84
2019-01-29T23:28:47.866Z,80.28
2019-01-29T23:31:14.762Z,80.84
2019-01-29T23:33:41.587Z,81.07
2019-01-29T23:36:08.434Z,81.59
2019-01-29T23:38:35.294Z,83.21
2019-01-29T23:41:02.125Z,84.25
2019-01-29T23:43:28.973Z,85.04
2019-01-29T23:45:55.806Z,84.41
2019-01-29T23:48:22.649Z,84.31
2019-01-29T23:50:49.485Z,83.16
2019-01-29T23:53:16.330Z,84.48
2019-01-29T23:55:43.173Z,84.46
2019-01-29T23:58:10.026Z,83.49
